createdAt,value
2022-11-02T00:01:43.323Z,6.00
2022-11-02T00:04:10.491Z,5.90
2022-11-02T00:06:37.302Z,5.90
2022-11-02T00:09:04.680Z,5.80
2022-11-02T00:11:31.507Z,5.80
2022-11-02T00:13:59.150Z,5.80
2022-11-02T00:16:26.436Z,5.80
2022-11-02T00:18:57.412Z,5.80
2022-11-02T00:21:26.485Z,5.90
2022-11-02T00:23:55.454Z,5.80
2022-11-02T00:26:22.426Z,5.80
2022-11-02T00:28:49.592Z,5.80
2022-11-02T00:31:16.393Z,5.80
2022-11-02T00:33:43.223Z,5.80
2022-11-02T00:36:10.198Z,5.90
2022-11-02T00:38:37.028Z,5.90
2022-11-02T00:41:03.851Z,6.00
2022-11-02T00:43:30.694Z,6.10
2022-11-02T00:45:57.537Z,6.10
2022-11-02T00:48:24.386Z,6.20
2022-11-02T00:50:51.177Z,6.30
2022-11-02T00:53:19.197Z,6.30
2022-11-02T00:55:53.841Z,6.30
2022-11-02T00:58:21.339Z,6.30
2022-11-02T01:00:49.886Z,6.20
2022-11-02T01:03:16.688Z,6.20
2022-11-02T01:05:43.914Z,6.10
2022-11-02T01:08:11.398Z,6.00
2022-11-02T01:10:39.060Z,6.00
2022-11-02T01:13:07.301Z,5.80
2022-11-02T01:15:36.164Z,5.80
2022-11-02T01:18:03.736Z,5.70
2022-11-02T01:20:30.803Z,5.70
2022-11-02T01:22:59.240Z,5.60
2022-11-02T01:25:26.265Z,5.60
2022-11-02T01:27:53.043Z,5.60
2022-11-02T01:30:20.097Z,5.50
2022-11-02T01:32:46.907Z,5.50
2022-11-02T01:35:13.764Z,5.50
2022-11-02T01:37:40.583Z,5.50
2022-11-02T01:40:09.257Z,5.50
2022-11-02T01:42:37.217Z,5.50
2022-11-02T01:45:04.427Z,5.50
2022-11-02T01:47:36.018Z,5.40
2022-11-02T01:50:11.615Z,5.40
2022-11-02T01:52:39.403Z,5.30
2022-11-02T01:55:16.535Z,5.20
2022-11-02T01:57:48.036Z,5.10
2022-11-02T02:00:18.222Z,5.00
2022-11-02T02:02:54.612Z,4.90
2022-11-02T02:05:24.200Z,4.90
2022-11-02T02:07:52.152Z,4.90
2022-11-02T02:10:19.696Z,4.90
2022-11-02T02:12:47.324Z,5.00
2022-11-02T02:15:17.726Z,5.00
2022-11-02T02:18:10.405Z,5.00
2022-11-02T02:20:58.675Z,5.00
2022-11-02T02:23:37.660Z,5.00
2022-11-02T02:26:31.235Z,5.00
2022-11-02T02:29:09.155Z,5.00
2022-11-02T02:32:05.177Z,5.10
2022-11-02T02:34:44.079Z,5.20
2022-11-02T02:37:17.263Z,5.30
2022-11-02T02:40:04.630Z,5.60
2022-11-02T02:42:44.126Z,5.70
2022-11-02T02:45:10.965Z,5.90
2022-11-02T02:47:44.692Z,6.00
2022-11-02T02:50:23.337Z,6.10
2022-11-02T02:52:52.148Z,6.20
2022-11-02T02:55:24.247Z,6.30
2022-11-02T02:57:53.101Z,6.30
2022-11-02T03:00:20.057Z,6.40
2022-11-02T03:03:01.110Z,6.50
2022-11-02T03:05:36.789Z,6.50
2022-11-02T03:08:13.475Z,6.60
2022-11-02T03:11:05.678Z,6.50
2022-11-02T03:13:59.194Z,6.50
2022-11-02T03:16:26.209Z,6.30
2022-11-02T03:19:05.200Z,6.20
2022-11-02T03:21:41.066Z,6.10
2022-11-02T03:24:28.103Z,6.00
2022-11-02T03:27:22.666Z,6.00
2022-11-02T03:30:04.351Z,5.90
2022-11-02T03:32:48.446Z,5.80
2022-11-02T03:35:44.953Z,5.70
2022-11-02T03:38:41.578Z,5.70
2022-11-02T03:41:09.462Z,5.70
2022-11-02T03:43:40.082Z,5.70
2022-11-02T03:46:09.944Z,5.80
2022-11-02T03:48:42.816Z,5.90
2022-11-02T03:51:15.184Z,6.00
2022-11-02T03:53:47.817Z,6.10
2022-11-02T03:56:30.122Z,6.20
2022-11-02T03:58:57.617Z,6.10
2022-11-02T04:01:27.288Z,6.10
2022-11-02T04:03:57.054Z,6.10
2022-11-02T04:06:25.675Z,6.10
2022-11-02T04:08:52.902Z,6.10
2022-11-02T04:11:40.800Z,6.20
2022-11-02T04:14:29.067Z,6.20
2022-11-02T04:17:16.966Z,6.30
2022-11-02T04:19:50.919Z,6.30
2022-11-02T04:22:38.860Z,6.30
2022-11-02T04:25:20.184Z,6.30
2022-11-02T04:28:10.132Z,6.40
2022-11-02T04:31:00.030Z,6.40
2022-11-02T04:33:33.453Z,6.50
2022-11-02T04:36:11.489Z,6.50
2022-11-02T04:38:43.163Z,6.50
2022-11-02T04:41:36.152Z,6.50
2022-11-02T04:44:06.685Z,6.50
2022-11-02T04:46:36.751Z,6.40
2022-11-02T04:49:04.421Z,6.40
2022-11-02T04:51:33.646Z,6.30
2022-11-02T04:54:01.225Z,6.30
2022-11-02T04:56:29.964Z,6.30
2022-11-02T04:58:59.680Z,6.20
2022-11-02T05:01:30.361Z,6.10
2022-11-02T05:03:59.755Z,6.10
2022-11-02T05:06:29.022Z,6.10
2022-11-02T05:08:56.300Z,6.10
2022-11-02T05:11:24.395Z,6.10
2022-11-02T05:13:52.237Z,6.10
2022-11-02T05:16:19.946Z,6.10
2022-11-02T05:18:49.273Z,6.10
2022-11-02T05:21:17.881Z,6.10
2022-11-02T05:23:46.441Z,6.10
2022-11-02T05:26:14.437Z,6.10
2022-11-02T05:28:44.852Z,6.10
2022-11-02T05:31:11.680Z,6.10
2022-11-02T05:33:38.864Z,6.10
2022-11-02T05:36:13.382Z,6.10
2022-11-02T05:38:43.878Z,6.10
2022-11-02T05:41:11.042Z,6.20
2022-11-02T05:43:39.941Z,6.10
2022-11-02T05:46:09.336Z,6.00
2022-11-02T05:48:36.481Z,5.90
2022-11-02T05:51:04.557Z,5.80
2022-11-02T05:53:33.794Z,5.70
2022-11-02T05:56:01.969Z,5.60
2022-11-02T05:58:29.440Z,5.50
2022-11-02T06:01:00.219Z,5.50
2022-11-02T06:03:27.097Z,5.50
2022-11-02T06:05:58.188Z,5.50
2022-11-02T06:08:25.755Z,5.60
2022-11-02T06:10:52.603Z,5.60
2022-11-02T06:13:19.862Z,5.60
2022-11-02T06:15:47.080Z,5.50
2022-11-02T06:18:14.148Z,5.50
2022-11-02T06:20:41.003Z,5.50
2022-11-02T06:23:08.395Z,5.40
2022-11-02T06:25:35.626Z,5.40
2022-11-02T06:28:02.539Z,5.40
2022-11-02T06:30:31.400Z,5.40
2022-11-02T06:33:01.595Z,5.40
2022-11-02T06:35:32.846Z,5.40
2022-11-02T06:37:59.650Z,5.50
2022-11-02T06:40:26.840Z,5.60
2022-11-02T06:43:15.267Z,5.60
2022-11-02T06:45:43.116Z,5.70
2022-11-02T06:48:09.968Z,5.90
2022-11-02T06:50:36.935Z,6.10
2022-11-02T06:53:04.119Z,6.20
2022-11-02T06:55:31.264Z,6.40
2022-11-02T06:57:58.067Z,6.60
2022-11-02T07:00:25.606Z,6.70
2022-11-02T07:03:10.448Z,6.90
2022-11-02T07:05:38.003Z,7.00
2022-11-02T07:08:05.367Z,7.20
2022-11-02T07:10:32.390Z,7.30
2022-11-02T07:12:59.701Z,7.40
2022-11-02T07:15:27.586Z,7.50
2022-11-02T07:17:54.570Z,7.60
2022-11-02T07:20:21.613Z,7.70
2022-11-02T07:22:59.303Z,7.80
2022-11-02T07:25:27.579Z,7.90
2022-11-02T07:27:55.026Z,8.00
2022-11-02T07:30:21.985Z,8.10
2022-11-02T07:32:48.906Z,8.20
2022-11-02T07:35:17.547Z,8.30
2022-11-02T07:37:44.679Z,8.40
2022-11-02T07:40:14.449Z,8.50
2022-11-02T07:42:46.838Z,8.50
2022-11-02T07:45:17.570Z,8.60
2022-11-02T07:47:45.252Z,8.70
2022-11-02T07:50:21.041Z,8.80
2022-11-02T07:52:52.922Z,8.90
2022-11-02T07:55:25.759Z,9.10
2022-11-02T07:58:01.145Z,9.20
2022-11-02T08:00:31.347Z,9.40
2022-11-02T08:02:59.961Z,9.60
2022-11-02T08:05:28.276Z,9.80
2022-11-02T08:08:03.695Z,10.00
2022-11-02T08:10:35.550Z,10.20
2022-11-02T08:13:11.687Z,10.40
2022-11-02T08:15:39.093Z,10.70
2022-11-02T08:18:07.947Z,10.80
2022-11-02T08:20:36.284Z,11.00
2022-11-02T08:23:04.028Z,11.00
2022-11-02T08:25:32.267Z,11.00
2022-11-02T08:28:00.645Z,11.10
2022-11-02T08:30:28.938Z,11.00
2022-11-02T08:32:57.336Z,11.00
2022-11-02T08:35:24.476Z,10.90
2022-11-02T08:37:57.813Z,10.90
2022-11-02T08:40:24.715Z,10.80
2022-11-02T08:43:02.478Z,10.70
2022-11-02T08:45:53.907Z,10.70
2022-11-02T08:48:17.780Z,10.80
2022-11-02T08:50:44.624Z,10.80
2022-11-02T08:53:11.416Z,10.90
2022-11-02T08:55:38.488Z,10.90
2022-11-02T08:58:05.589Z,10.90
2022-11-02T09:00:37.885Z,10.90
2022-11-02T09:03:09.988Z,11.00
2022-11-02T09:05:44.967Z,11.10
2022-11-02T09:08:17.197Z,11.10
2022-11-02T09:10:45.511Z,11.20
2022-11-02T09:13:14.619Z,11.30
2022-11-02T09:15:42.097Z,11.30
2022-11-02T09:18:09.634Z,11.50
2022-11-02T09:20:37.448Z,11.60
2022-11-02T09:23:04.568Z,11.80
2022-11-02T09:25:31.736Z,12.00
2022-11-02T09:27:58.973Z,12.00
2022-11-02T09:30:27.311Z,12.10
2022-11-02T09:32:58.852Z,12.20
2022-11-02T09:35:27.639Z,12.30
2022-11-02T09:37:54.595Z,12.50
2022-11-02T09:40:24.542Z,12.60
2022-11-02T09:43:09.615Z,12.70
2022-11-02T09:45:58.152Z,12.80
2022-11-02T09:48:48.654Z,13.00
2022-11-02T09:51:31.827Z,13.30
2022-11-02T09:54:14.756Z,13.50
2022-11-02T09:56:45.265Z,13.60
2022-11-02T09:59:19.028Z,13.60
2022-11-02T10:02:02.308Z,13.70
2022-11-02T10:04:29.201Z,13.60
2022-11-02T10:07:19.252Z,13.60
2022-11-02T10:09:57.709Z,13.60
2022-11-02T10:12:41.803Z,13.60
2022-11-02T10:15:17.157Z,13.40
2022-11-02T10:17:46.215Z,13.40
2022-11-02T10:20:28.426Z,13.20
2022-11-02T10:23:03.547Z,13.10
2022-11-02T10:25:30.762Z,13.00
2022-11-02T10:28:05.315Z,12.90
2022-11-02T10:30:32.529Z,12.90
2022-11-02T10:32:59.890Z,12.80
2022-11-02T10:39:02.393Z,12.80
2022-11-02T10:41:32.025Z,12.80
2022-11-02T10:44:53.223Z,12.90
2022-11-02T10:47:29.756Z,12.90
2022-11-02T10:50:12.568Z,12.80
2022-11-02T10:52:43.651Z,12.90
2022-11-02T10:55:35.316Z,12.90
2022-11-02T10:58:05.806Z,12.90
2022-11-02T11:00:37.091Z,13.10
2022-11-02T11:03:03.928Z,13.10
2022-11-02T11:05:31.559Z,13.10
2022-11-02T11:07:59.606Z,13.20
2022-11-02T11:10:27.728Z,13.20
2022-11-02T11:12:56.192Z,13.20
2022-11-02T11:21:09.057Z,13.30
2022-11-02T11:23:36.069Z,13.40
2022-11-02T11:26:05.542Z,13.40
2022-11-02T11:28:40.756Z,13.50
2022-11-02T11:31:09.477Z,13.50
2022-11-02T11:33:54.129Z,13.40
2022-11-02T11:36:30.780Z,13.30
2022-11-02T11:39:04.833Z,13.20
2022-11-02T11:41:34.189Z,13.20
2022-11-02T11:44:03.242Z,13.10
2022-11-02T11:46:42.667Z,13.10
2022-11-02T11:49:35.991Z,13.00
2022-11-02T11:52:18.814Z,12.90
2022-11-02T11:54:54.952Z,12.80
2022-11-02T11:57:29.377Z,12.70
2022-11-02T12:00:04.982Z,12.70
2022-11-02T12:02:43.935Z,12.80
2022-11-02T12:05:20.826Z,12.90
2022-11-02T12:08:06.473Z,13.00
2022-11-02T12:10:46.620Z,13.10
2022-11-02T12:13:19.876Z,13.30
2022-11-02T12:16:27.130Z,13.40
2022-11-02T12:19:18.516Z,13.50
2022-11-02T12:22:03.453Z,13.70
2022-11-02T12:24:39.084Z,13.90
2022-11-02T12:27:23.280Z,14.20
2022-11-02T12:30:09.188Z,14.70
2022-11-02T12:33:24.042Z,15.30
2022-11-02T12:36:00.509Z,16.00
2022-11-02T12:38:51.611Z,16.70
2022-11-02T12:41:24.612Z,17.30
2022-11-02T12:43:59.168Z,17.90
2022-11-02T12:46:49.101Z,18.50
2022-11-02T12:49:37.658Z,18.50
2022-11-02T12:52:21.793Z,18.50
2022-11-02T12:54:54.558Z,18.50
2022-11-02T12:57:24.204Z,18.80
2022-11-02T12:59:55.795Z,18.80
2022-11-02T13:02:53.370Z,18.50
2022-11-02T13:05:28.532Z,18.40
2022-11-02T13:08:17.025Z,18.30
2022-11-02T13:10:53.780Z,18.40
2022-11-02T13:13:45.408Z,18.40
2022-11-02T13:16:15.351Z,18.20
2022-11-02T13:18:53.303Z,18.20
2022-11-02T13:21:39.824Z,18.10
2022-11-02T13:24:17.312Z,18.20
2022-11-02T13:26:47.445Z,18.30
2022-11-02T13:29:45.390Z,18.30
2022-11-02T13:32:20.446Z,18.20
2022-11-02T13:34:50.913Z,18.20
2022-11-02T13:37:43.162Z,18.20
2022-11-02T13:40:28.433Z,18.40
2022-11-02T13:43:13.757Z,18.30
2022-11-02T13:46:16.485Z,18.20
2022-11-02T13:48:54.232Z,18.50
2022-11-02T13:51:25.022Z,18.80
2022-11-02T13:54:08.320Z,19.00
2022-11-02T13:56:37.555Z,19.20
2022-11-02T13:59:08.981Z,19.30
2022-11-02T14:01:51.383Z,19.40
2022-11-02T14:04:20.103Z,19.50
2022-11-02T14:07:06.480Z,19.50
2022-11-02T14:09:44.691Z,19.50
2022-11-02T14:12:17.721Z,19.50
2022-11-02T14:14:46.348Z,19.50
2022-11-02T14:17:19.469Z,19.50
2022-11-02T14:19:49.086Z,19.40
2022-11-02T14:22:17.948Z,19.30
2022-11-02T14:24:49.330Z,19.10
2022-11-02T14:27:16.648Z,18.80
2022-11-02T14:29:46.561Z,18.40
2022-11-02T14:32:28.393Z,18.20
2022-11-02T14:35:23.468Z,18.00
2022-11-02T14:38:00.797Z,17.80
2022-11-02T14:40:54.777Z,17.70
2022-11-02T14:44:09.498Z,17.50
2022-11-02T14:46:56.633Z,17.20
2022-11-02T14:49:30.041Z,17.00
2022-11-02T14:52:15.853Z,16.80
2022-11-02T14:54:50.950Z,16.70
2022-11-02T14:57:29.677Z,16.50
2022-11-02T15:00:00.584Z,16.30
2022-11-02T15:02:32.396Z,16.00
2022-11-02T15:05:02.759Z,15.70
2022-11-02T15:07:58.461Z,15.40
2022-11-02T15:10:31.405Z,15.10
2022-11-02T15:13:32.000Z,14.80
2022-11-02T15:15:59.021Z,14.60
2022-11-02T15:18:37.090Z,14.40
2022-11-02T15:21:10.193Z,14.30
2022-11-02T15:23:51.875Z,14.10
2022-11-02T15:26:44.599Z,14.00
2022-11-02T15:29:44.028Z,13.80
2022-11-02T15:32:22.407Z,13.60
2022-11-02T15:34:56.602Z,13.50
2022-11-02T15:37:50.279Z,13.30
2022-11-02T15:40:24.327Z,13.20
2022-11-02T15:42:57.303Z,13.00
2022-11-02T15:45:47.832Z,12.90
2022-11-02T15:48:45.655Z,12.70
2022-11-02T15:51:24.782Z,12.50
2022-11-02T15:54:02.995Z,12.20
2022-11-02T15:56:59.368Z,12.00
2022-11-02T15:59:47.691Z,11.80
2022-11-02T16:02:26.491Z,11.50
2022-11-02T16:05:00.031Z,11.40
2022-11-02T16:07:33.484Z,11.20
2022-11-02T16:10:31.357Z,11.10
2022-11-02T16:13:11.440Z,10.80
2022-11-02T16:15:42.309Z,10.70
2022-11-02T16:18:27.696Z,10.50
2022-11-02T16:20:57.289Z,10.30
2022-11-02T16:23:26.948Z,10.10
2022-11-02T16:25:56.220Z,10.00
2022-11-02T16:28:29.036Z,9.90
2022-11-02T16:31:18.864Z,9.70
2022-11-02T16:33:51.153Z,9.50
2022-11-02T16:36:23.582Z,9.40
2022-11-02T16:39:04.395Z,9.30
2022-11-02T16:41:34.062Z,9.20
2022-11-02T16:44:16.567Z,9.10
2022-11-02T16:46:53.361Z,8.90
2022-11-02T16:49:22.586Z,8.80
2022-11-02T16:52:18.842Z,8.70
2022-11-02T16:54:45.923Z,8.60
2022-11-02T16:57:12.758Z,8.50
2022-11-02T17:00:05.168Z,8.40
2022-11-02T17:02:41.021Z,8.30
2022-11-02T17:05:19.485Z,8.30
2022-11-02T17:08:00.380Z,8.20
2022-11-02T17:10:32.438Z,8.10
2022-11-02T17:13:00.871Z,8.00
2022-11-02T17:15:30.145Z,7.90
2022-11-02T17:18:09.247Z,7.90
2022-11-02T17:20:40.439Z,7.80
2022-11-02T17:23:10.836Z,7.70
2022-11-02T17:25:39.907Z,7.60
2022-11-02T17:28:45.603Z,7.60
2022-11-02T17:31:23.676Z,7.50
2022-11-02T17:33:52.698Z,7.40
2022-11-02T17:36:22.259Z,7.30
2022-11-02T17:38:49.087Z,7.20
2022-11-02T17:41:46.273Z,7.10
2022-11-02T17:44:17.389Z,7.10
2022-11-02T17:46:46.041Z,7.00
2022-11-02T17:49:13.128Z,6.90
2022-11-02T17:51:40.642Z,6.90
2022-11-02T17:54:08.815Z,6.80
2022-11-02T17:56:35.607Z,6.80
2022-11-02T17:59:02.408Z,6.80
2022-11-02T18:01:29.431Z,6.70
2022-11-02T18:03:56.453Z,6.70
2022-11-02T18:06:23.470Z,6.70
2022-11-02T18:09:09.276Z,6.70
2022-11-02T18:11:37.466Z,6.60
2022-11-02T18:14:04.742Z,6.60
2022-11-02T18:16:32.682Z,6.50
2022-11-02T18:19:00.463Z,6.50
2022-11-02T18:21:27.526Z,6.40
2022-11-02T18:23:54.374Z,6.40
2022-11-02T18:26:21.175Z,6.40
2022-11-02T18:28:48.033Z,6.40
2022-11-02T18:31:14.861Z,6.40
2022-11-02T18:33:43.367Z,6.30
2022-11-02T18:36:10.784Z,6.30
2022-11-02T18:38:38.117Z,6.30
2022-11-02T18:41:27.017Z,6.30
2022-11-02T18:44:00.559Z,6.40
2022-11-02T18:46:31.769Z,6.40
2022-11-02T18:48:58.972Z,6.40
2022-11-02T18:51:26.330Z,6.30
2022-11-02T18:53:59.381Z,6.30
2022-11-02T18:56:26.911Z,6.20
2022-11-02T18:58:54.748Z,6.10
2022-11-02T19:01:23.081Z,6.00
2022-11-02T19:03:58.282Z,5.80
2022-11-02T19:06:45.501Z,5.80
2022-11-02T19:09:20.445Z,5.70
2022-11-02T19:12:04.577Z,5.70
2022-11-02T19:14:34.497Z,5.60
2022-11-02T19:17:01.555Z,5.70
2022-11-02T19:19:28.791Z,5.60
2022-11-02T19:21:55.775Z,5.60
2022-11-02T19:24:22.836Z,5.60
2022-11-02T19:26:51.530Z,5.50
2022-11-02T19:29:19.323Z,5.50
2022-11-02T19:31:46.484Z,5.40
2022-11-02T19:34:13.713Z,5.40
2022-11-02T19:36:40.993Z,5.30
2022-11-02T19:39:10.141Z,5.30
2022-11-02T19:41:38.761Z,5.30
2022-11-02T19:44:06.653Z,5.20
2022-11-02T19:46:34.004Z,5.20
2022-11-02T19:49:00.956Z,5.10
2022-11-02T19:51:29.728Z,5.00
2022-11-02T19:53:59.283Z,5.00
2022-11-02T19:56:30.413Z,5.00
2022-11-02T19:58:57.661Z,5.10
2022-11-02T20:01:30.076Z,5.00
2022-11-02T20:03:57.989Z,5.00
2022-11-02T20:06:28.049Z,5.00
2022-11-02T20:08:56.637Z,4.90
2022-11-02T20:11:27.428Z,4.90
2022-11-02T20:13:59.213Z,4.90
2022-11-02T20:16:26.771Z,4.90
2022-11-02T20:18:54.778Z,4.80
2022-11-02T20:21:32.441Z,4.80
2022-11-02T20:24:03.178Z,4.70
2022-11-02T20:26:35.644Z,4.70
2022-11-02T20:29:04.203Z,4.60
2022-11-02T20:31:33.406Z,4.60
2022-11-02T20:34:00.774Z,4.60
2022-11-02T20:36:28.401Z,4.60
2022-11-02T20:38:56.372Z,4.60
2022-11-02T20:41:24.264Z,4.60
2022-11-02T20:43:53.849Z,4.60
2022-11-02T20:46:42.588Z,4.60
2022-11-02T20:49:22.126Z,4.60
2022-11-02T20:51:58.211Z,4.60
2022-11-02T20:54:26.278Z,4.60
2022-11-02T20:56:53.163Z,4.60
2022-11-02T20:59:20.293Z,4.60
2022-11-02T21:01:49.666Z,4.60
2022-11-02T21:04:20.819Z,4.50
2022-11-02T21:06:49.857Z,4.50
2022-11-02T21:09:17.825Z,4.50
2022-11-02T21:12:03.789Z,4.40
2022-11-02T21:14:33.452Z,4.30
2022-11-02T21:17:02.849Z,4.30
2022-11-02T21:19:30.181Z,4.20
2022-11-02T21:22:00.018Z,4.20
2022-11-02T21:24:28.847Z,4.20
2022-11-02T21:26:55.714Z,4.10
2022-11-02T21:29:25.056Z,4.10
2022-11-02T21:31:52.215Z,4.20
2022-11-02T21:34:19.366Z,4.20
2022-11-02T21:36:47.452Z,4.20
2022-11-02T21:39:14.323Z,4.30
2022-11-02T21:41:41.323Z,4.30
2022-11-02T21:44:09.058Z,4.30
2022-11-02T21:46:36.932Z,4.30
2022-11-02T21:49:04.227Z,4.30
2022-11-02T21:51:31.123Z,4.20
2022-11-02T21:53:58.056Z,4.20
2022-11-02T21:56:27.121Z,4.20
2022-11-02T21:58:55.415Z,4.10
2022-11-02T22:01:43.272Z,4.20
2022-11-02T22:04:12.111Z,4.20
2022-11-02T22:06:39.639Z,4.20
2022-11-02T22:09:08.779Z,4.20
2022-11-02T22:11:35.646Z,4.20
2022-11-02T22:14:02.890Z,4.20
2022-11-02T22:16:31.933Z,4.10
2022-11-02T22:19:01.457Z,4.10
2022-11-02T22:21:30.996Z,4.10
2022-11-02T22:23:58.874Z,4.10
2022-11-02T22:26:28.032Z,4.10
2022-11-02T22:28:57.677Z,4.10
2022-11-02T22:31:27.718Z,4.10
2022-11-02T22:33:56.681Z,4.00
2022-11-02T22:36:26.306Z,3.90
2022-11-02T22:38:54.423Z,3.90
2022-11-02T22:41:34.000Z,3.90
2022-11-02T22:44:16.597Z,3.80
2022-11-02T22:46:45.962Z,3.80
2022-11-02T22:49:15.797Z,3.80
2022-11-02T22:51:45.500Z,3.80
2022-11-02T22:54:16.423Z,3.80
2022-11-02T22:56:44.826Z,3.90
2022-11-02T22:59:12.107Z,3.90
2022-11-02T23:01:39.347Z,4.00
2022-11-02T23:04:06.653Z,4.00
2022-11-02T23:06:34.120Z,4.00
2022-11-02T23:09:01.379Z,4.00
2022-11-02T23:11:36.285Z,4.00
2022-11-02T23:14:09.336Z,4.00
2022-11-02T23:16:42.257Z,4.00
2022-11-02T23:19:28.261Z,4.00
2022-11-02T23:22:19.120Z,3.90
2022-11-02T23:25:17.879Z,3.90
2022-11-02T23:28:04.139Z,3.90
2022-11-02T23:30:52.827Z,3.90
2022-11-02T23:33:20.235Z,4.00
2022-11-02T23:36:05.940Z,4.00
2022-11-02T23:38:51.337Z,4.00
2022-11-02T23:41:19.366Z,4.10
2022-11-02T23:43:46.833Z,4.10
2022-11-02T23:46:14.631Z,4.10
2022-11-02T23:48:42.136Z,4.10
2022-11-02T23:51:30.631Z,4.20
2022-11-02T23:54:16.413Z,4.20
2022-11-02T23:56:43.581Z,4.20
2022-11-02T23:59:15.702Z,4.20
